createdAt,value
2018-07-07T00:00:04.169Z,5.50
2018-07-07T00:02:31.016Z,6.13
2018-07-07T00:04:57.853Z,5.67
2018-07-07T00:07:24.660Z,5.80
2018-07-07T00:09:51.482Z,6.10
2018-07-07T00:12:18.378Z,6.67
2018-07-07T00:14:45.262Z,5.77
2018-07-07T00:17:12.513Z,6.35
2018-07-07T00:19:39.305Z,5.37
2018-07-07T00:22:06.169Z,6.50
2018-07-07T00:24:32.982Z,5.67
2018-07-07T00:26:59.791Z,5.60
2018-07-07T00:29:26.615Z,5.77
2018-07-07T00:31:53.529Z,6.80
2018-07-07T00:34:20.354Z,5.73
2018-07-07T00:36:47.183Z,5.50
2018-07-07T00:39:14.012Z,5.77
2018-07-07T00:41:40.839Z,5.17
2018-07-07T00:44:07.671Z,5.30
2018-07-07T00:46:34.496Z,5.25
2018-07-07T00:49:01.314Z,4.97
2018-07-07T00:51:28.273Z,7.30
2018-07-07T00:53:55.109Z,5.00
2018-07-07T00:56:21.930Z,5.07
2018-07-07T00:58:48.758Z,8.73
2018-07-07T01:01:15.590Z,6.60
2018-07-07T01:03:42.425Z,5.67
2018-07-07T01:06:09.253Z,5.45
2018-07-07T01:08:36.458Z,5.27
2018-07-07T01:11:03.221Z,5.22
2018-07-07T01:13:30.057Z,8.60
2018-07-07T01:15:56.879Z,5.57
2018-07-07T01:18:23.694Z,5.83
2018-07-07T01:20:50.516Z,4.90
2018-07-07T01:23:17.325Z,6.00
2018-07-07T01:25:44.150Z,6.10
2018-07-07T01:28:10.979Z,5.25
2018-07-07T01:30:37.829Z,5.40
2018-07-07T01:33:04.657Z,5.67
2018-07-07T01:35:31.485Z,5.53
2018-07-07T01:37:58.311Z,6.07
2018-07-07T01:40:25.126Z,5.90
2018-07-07T01:42:51.974Z,6.33
2018-07-07T01:45:18.790Z,5.63
2018-07-07T01:47:45.635Z,5.67
2018-07-07T01:50:12.455Z,5.77
2018-07-07T01:52:39.352Z,5.40
2018-07-07T01:55:06.186Z,6.12
2018-07-07T01:57:33.010Z,5.67
2018-07-07T01:59:59.826Z,5.57
2018-07-07T02:02:26.967Z,5.80
2018-07-07T02:04:53.767Z,5.33
2018-07-07T02:07:20.589Z,8.80
2018-07-07T02:09:47.436Z,7.10
2018-07-07T02:12:14.290Z,5.80
2018-07-07T02:14:41.114Z,5.77
2018-07-07T02:17:08.025Z,8.45
2018-07-07T02:19:34.983Z,5.77
2018-07-07T02:22:01.878Z,5.90
2018-07-07T02:24:28.699Z,5.95
2018-07-07T02:26:55.524Z,6.13
2018-07-07T02:29:22.352Z,5.80
2018-07-07T02:31:49.251Z,5.77
2018-07-07T02:34:16.091Z,5.40
2018-07-07T02:36:42.911Z,6.37
2018-07-07T02:39:09.722Z,5.83
2018-07-07T02:41:36.616Z,5.60
2018-07-07T02:44:03.438Z,6.20
2018-07-07T02:46:30.250Z,5.80
2018-07-07T02:48:57.064Z,5.60
2018-07-07T02:51:24.002Z,5.75
2018-07-07T02:53:50.828Z,6.03
2018-07-07T02:56:17.661Z,5.93
2018-07-07T02:58:44.474Z,6.50
2018-07-07T03:01:11.359Z,6.20
2018-07-07T03:03:38.201Z,6.23
2018-07-07T03:06:05.038Z,6.43
2018-07-07T03:08:31.874Z,6.50
2018-07-07T03:10:58.702Z,6.72
2018-07-07T03:13:25.531Z,6.05
2018-07-07T03:15:52.346Z,6.23
2018-07-07T03:18:19.165Z,6.60
2018-07-07T03:20:45.998Z,5.70
2018-07-07T03:23:12.813Z,5.97
2018-07-07T03:25:39.634Z,6.90
2018-07-07T03:28:06.462Z,6.67
2018-07-07T03:30:33.270Z,6.87
2018-07-07T03:33:00.091Z,5.60
2018-07-07T03:35:26.956Z,6.47
2018-07-07T03:37:53.771Z,5.40
2018-07-07T03:40:20.600Z,8.00
2018-07-07T03:42:47.437Z,6.67
2018-07-07T03:45:14.246Z,6.30
2018-07-07T03:47:41.461Z,6.80
2018-07-07T03:50:08.190Z,5.77
2018-07-07T03:52:35.061Z,6.40
2018-07-07T03:55:01.912Z,5.20
2018-07-07T03:57:28.732Z,6.42
2018-07-07T03:59:55.554Z,7.13
2018-07-07T04:02:22.382Z,5.97
2018-07-07T04:04:49.197Z,5.77
2018-07-07T04:07:16.042Z,6.30
2018-07-07T04:09:42.838Z,6.10
2018-07-07T04:12:09.803Z,6.15
2018-07-07T04:14:36.633Z,6.47
2018-07-07T04:17:03.455Z,6.22
2018-07-07T04:19:30.294Z,6.37
2018-07-07T04:21:57.176Z,8.50
2018-07-07T04:24:23.994Z,5.83
2018-07-07T04:26:50.825Z,6.33
2018-07-07T04:29:17.643Z,5.83
2018-07-07T04:31:44.458Z,5.90
2018-07-07T04:34:11.269Z,6.35
2018-07-07T04:36:38.092Z,6.10
2018-07-07T04:39:05.071Z,6.87
2018-07-07T04:41:31.910Z,6.10
2018-07-07T04:43:58.734Z,9.10
2018-07-07T04:46:25.591Z,6.90
2018-07-07T04:48:52.458Z,6.40
2018-07-07T04:51:19.304Z,25.63
2018-07-07T04:53:46.137Z,12.20
2018-07-07T04:56:12.979Z,13.38
2018-07-07T04:58:39.828Z,11.37
2018-07-07T05:01:06.660Z,15.95
2018-07-07T05:03:33.542Z,12.03
2018-07-07T05:06:00.357Z,11.90
2018-07-07T05:08:27.185Z,19.43
2018-07-07T05:10:54.026Z,17.30
2018-07-07T05:13:20.861Z,15.43
2018-07-07T05:15:47.683Z,12.50
2018-07-07T05:18:14.558Z,13.83
2018-07-07T05:20:41.388Z,12.53
2018-07-07T05:23:08.206Z,10.88
2018-07-07T05:25:35.035Z,11.80
2018-07-07T05:28:01.882Z,13.70
2018-07-07T05:30:28.710Z,15.47
2018-07-07T05:32:55.617Z,15.03
2018-07-07T05:35:22.442Z,20.83
2018-07-07T05:37:49.274Z,14.23
2018-07-07T05:40:16.111Z,13.27
2018-07-07T05:42:42.998Z,14.93
2018-07-07T05:45:09.825Z,20.72
2018-07-07T05:47:36.662Z,15.83
2018-07-07T05:50:03.535Z,11.90
2018-07-07T05:52:30.375Z,19.07
2018-07-07T05:54:57.194Z,14.30
2018-07-07T05:57:24.077Z,16.63
2018-07-07T05:59:50.859Z,20.17
2018-07-07T06:02:18.200Z,15.73
2018-07-07T06:04:45.024Z,14.10
2018-07-07T06:07:11.849Z,24.87
2018-07-07T06:09:38.671Z,21.43
2018-07-07T06:12:05.710Z,19.27
2018-07-07T06:14:32.596Z,15.00
2018-07-07T06:16:59.431Z,17.23
2018-07-07T06:19:26.259Z,18.17
2018-07-07T06:21:53.094Z,13.53
2018-07-07T06:24:19.910Z,14.63
2018-07-07T06:26:46.790Z,21.27
2018-07-07T06:29:13.554Z,21.90
2018-07-07T06:31:40.458Z,18.33
2018-07-07T06:34:07.281Z,18.83
2018-07-07T06:36:34.150Z,16.70
2018-07-07T06:39:00.981Z,19.60
2018-07-07T06:41:27.830Z,16.80
2018-07-07T06:43:54.654Z,19.47
2018-07-07T06:46:21.489Z,17.77
2018-07-07T06:48:48.320Z,18.20
2018-07-07T06:51:15.204Z,17.20
2018-07-07T06:53:42.087Z,24.23
2018-07-07T06:56:08.853Z,18.40
2018-07-07T06:58:35.681Z,16.83
2018-07-07T07:01:02.596Z,19.97
2018-07-07T07:03:29.435Z,17.80
2018-07-07T07:05:56.242Z,21.33
2018-07-07T07:08:23.081Z,16.35
2018-07-07T07:10:49.905Z,19.03
2018-07-07T07:13:16.723Z,17.93
2018-07-07T07:15:43.564Z,16.97
2018-07-07T07:18:10.392Z,19.03
2018-07-07T07:20:37.213Z,17.13
2018-07-07T07:23:04.072Z,17.57
2018-07-07T07:25:30.906Z,18.10
2018-07-07T07:27:57.730Z,19.27
2018-07-07T07:30:24.554Z,24.23
2018-07-07T07:32:51.538Z,18.57
2018-07-07T07:35:18.399Z,18.02
2018-07-07T07:37:45.251Z,25.90
2018-07-07T07:40:12.268Z,17.10
2018-07-07T07:42:39.110Z,15.33
2018-07-07T07:45:05.938Z,17.07
2018-07-07T07:47:32.789Z,15.37
2018-07-07T07:49:59.623Z,31.20
2018-07-07T07:52:26.480Z,16.17
2018-07-07T07:54:53.314Z,15.03
2018-07-07T07:57:20.156Z,14.80
2018-07-07T07:59:46.978Z,13.50
2018-07-07T08:02:15.046Z,15.00
2018-07-07T08:04:41.878Z,12.93
2018-07-07T08:07:08.672Z,13.10
2018-07-07T08:09:35.502Z,14.37
2018-07-07T08:12:02.459Z,15.73
2018-07-07T08:14:29.286Z,15.40
2018-07-07T08:16:56.112Z,17.30
2018-07-07T08:19:22.939Z,13.13
2018-07-07T08:21:49.827Z,15.00
2018-07-07T08:24:16.656Z,15.70
2018-07-07T08:26:43.481Z,11.30
2018-07-07T08:29:10.311Z,16.00
2018-07-07T08:31:37.198Z,13.20
2018-07-07T08:34:04.018Z,21.00
2018-07-07T08:36:30.851Z,14.47
2018-07-07T08:38:57.682Z,12.23
2018-07-07T08:41:24.569Z,13.13
2018-07-07T08:43:51.399Z,14.73
2018-07-07T08:46:18.217Z,15.93
2018-07-07T08:48:45.054Z,13.50
2018-07-07T08:51:11.943Z,14.60
2018-07-07T08:53:38.771Z,13.70
2018-07-07T08:56:05.601Z,18.23
2018-07-07T08:58:32.428Z,16.00
2018-07-07T09:00:59.313Z,18.13
2018-07-07T09:03:26.135Z,12.47
2018-07-07T09:05:52.972Z,13.72
2018-07-07T09:08:19.792Z,14.40
2018-07-07T09:10:46.616Z,14.18
2018-07-07T09:13:13.519Z,17.30
2018-07-07T09:15:40.346Z,17.62
2018-07-07T09:18:07.216Z,16.57
2018-07-07T09:20:34.323Z,15.70
2018-07-07T09:23:01.243Z,16.57
2018-07-07T09:25:28.070Z,17.07
2018-07-07T09:27:55.281Z,19.87
2018-07-07T09:30:22.006Z,16.60
2018-07-07T09:32:48.886Z,16.67
2018-07-07T09:35:15.729Z,17.73
2018-07-07T09:37:42.667Z,18.10
2018-07-07T09:40:09.589Z,22.03
2018-07-07T09:42:36.537Z,19.30
2018-07-07T09:45:03.363Z,19.67
2018-07-07T09:47:30.198Z,21.53
2018-07-07T09:49:57.036Z,22.50
2018-07-07T09:52:24.041Z,21.73
2018-07-07T09:54:50.870Z,23.32
2018-07-07T09:57:17.714Z,22.55
2018-07-07T09:59:44.549Z,21.40
2018-07-07T10:02:11.432Z,23.10
2018-07-07T10:04:38.264Z,28.07
2018-07-07T10:07:05.081Z,35.93
2018-07-07T10:09:31.923Z,20.70
2018-07-07T10:11:58.778Z,25.70
2018-07-07T10:14:25.604Z,23.47
2018-07-07T10:16:52.425Z,31.27
2018-07-07T10:19:19.265Z,21.17
2018-07-07T10:21:46.154Z,22.83
2018-07-07T10:24:12.987Z,26.70
2018-07-07T10:26:39.821Z,25.80
2018-07-07T10:29:06.640Z,21.43
2018-07-07T10:31:33.545Z,21.47
2018-07-07T10:34:00.337Z,20.17
2018-07-07T10:36:27.210Z,30.75
2018-07-07T10:38:54.039Z,18.77
2018-07-07T10:41:20.894Z,21.77
2018-07-07T10:43:47.725Z,18.45
2018-07-07T10:46:14.622Z,19.60
2018-07-07T10:48:41.392Z,23.50
2018-07-07T10:51:08.265Z,20.63
2018-07-07T10:53:35.102Z,25.57
2018-07-07T10:56:01.924Z,21.47
2018-07-07T10:58:28.753Z,22.70
2018-07-07T11:00:55.593Z,22.40
2018-07-07T11:03:22.427Z,20.37
2018-07-07T11:05:49.262Z,21.43
2018-07-07T11:08:16.111Z,19.53
2018-07-07T11:10:42.944Z,18.90
2018-07-07T11:13:09.764Z,22.90
2018-07-07T11:15:36.595Z,25.17
2018-07-07T11:18:03.427Z,31.93
2018-07-07T11:20:30.240Z,24.63
2018-07-07T11:22:57.223Z,21.90
2018-07-07T11:25:24.054Z,17.92
2018-07-07T11:27:50.890Z,17.80
2018-07-07T11:30:17.716Z,18.77
2018-07-07T11:32:44.599Z,18.20
2018-07-07T11:35:11.427Z,30.20
2018-07-07T11:37:38.270Z,25.80
2018-07-07T11:40:05.089Z,19.27
2018-07-07T11:42:31.967Z,16.97
2018-07-07T11:44:58.802Z,22.97
2018-07-07T11:47:26.521Z,16.80
2018-07-07T11:49:53.341Z,23.03
2018-07-07T11:52:20.383Z,18.95
2018-07-07T11:54:47.216Z,21.37
2018-07-07T11:57:14.103Z,20.40
2018-07-07T11:59:40.870Z,21.12
2018-07-07T12:02:07.741Z,21.10
2018-07-07T12:04:34.697Z,20.90
2018-07-07T12:07:01.462Z,20.40
2018-07-07T12:09:28.296Z,16.43
2018-07-07T12:11:55.302Z,21.73
2018-07-07T12:14:22.134Z,18.03
2018-07-07T12:16:48.979Z,23.43
2018-07-07T12:19:15.808Z,24.40
2018-07-07T12:21:42.638Z,22.37
2018-07-07T12:24:09.469Z,23.42
2018-07-07T12:26:36.365Z,18.63
2018-07-07T12:29:03.189Z,21.03
2018-07-07T12:31:30.467Z,16.47
2018-07-07T12:33:57.281Z,18.37
2018-07-07T12:36:24.119Z,16.10
2018-07-07T12:38:50.955Z,16.47
2018-07-07T12:41:17.834Z,18.77
2018-07-07T12:43:44.663Z,20.80
2018-07-07T12:46:11.491Z,21.40
2018-07-07T12:48:38.315Z,15.30
2018-07-07T12:51:05.253Z,16.32
2018-07-07T12:53:32.088Z,17.98
2018-07-07T12:55:58.912Z,17.03
2018-07-07T12:58:26.185Z,19.80
2018-07-07T13:00:53.012Z,16.07
2018-07-07T13:03:19.844Z,21.90
2018-07-07T13:05:46.672Z,19.03
2018-07-07T13:08:13.491Z,17.03
2018-07-07T13:10:40.348Z,15.30
2018-07-07T13:13:07.202Z,16.27
2018-07-07T13:15:34.037Z,15.90
2018-07-07T13:18:00.953Z,16.03
2018-07-07T13:20:27.779Z,16.48
2018-07-07T13:22:54.773Z,25.87
2018-07-07T13:25:21.622Z,17.30
2018-07-07T13:27:48.442Z,16.37
2018-07-07T13:30:15.711Z,15.85
2018-07-07T13:32:42.568Z,17.33
2018-07-07T13:35:09.393Z,17.90
2018-07-07T13:37:36.241Z,21.05
2018-07-07T13:40:03.051Z,20.93
2018-07-07T13:42:29.947Z,17.97
2018-07-07T13:44:56.780Z,17.20
2018-07-07T13:47:23.934Z,20.93
2018-07-07T13:49:50.747Z,22.70
2018-07-07T13:52:17.714Z,17.80
2018-07-07T13:54:44.554Z,17.97
2018-07-07T13:57:11.380Z,17.00
2018-07-07T13:59:38.206Z,18.30
2018-07-07T14:02:05.095Z,18.07
2018-07-07T14:04:31.927Z,20.63
2018-07-07T14:06:58.973Z,16.55
2018-07-07T14:09:25.866Z,22.10
2018-07-07T14:11:52.670Z,17.77
2018-07-07T14:14:19.498Z,21.45
2018-07-07T14:16:46.736Z,22.00
2018-07-07T14:19:13.463Z,17.10
2018-07-07T14:21:40.453Z,19.67
2018-07-07T14:24:07.283Z,18.83
2018-07-07T14:26:34.108Z,19.03
2018-07-07T14:29:00.948Z,22.80
2018-07-07T14:31:27.856Z,20.10
2018-07-07T14:33:54.682Z,17.37
2018-07-07T14:36:21.502Z,20.67
2018-07-07T14:38:48.362Z,18.15
2018-07-07T14:41:15.389Z,19.52
2018-07-07T14:43:42.218Z,18.62
2018-07-07T14:46:09.058Z,17.02
2018-07-07T14:48:35.870Z,16.80
2018-07-07T14:51:02.766Z,18.47
2018-07-07T14:53:29.596Z,18.43
2018-07-07T14:55:56.502Z,20.40
2018-07-07T14:58:23.401Z,19.03
2018-07-07T15:00:50.141Z,17.83
2018-07-07T15:03:16.976Z,19.77
2018-07-07T15:05:43.788Z,23.27
2018-07-07T15:08:10.617Z,18.57
2018-07-07T15:10:37.450Z,17.95
2018-07-07T15:13:04.280Z,21.47
2018-07-07T15:15:31.515Z,17.53
2018-07-07T15:17:58.235Z,18.70
2018-07-07T15:20:25.065Z,18.03
2018-07-07T15:22:51.940Z,19.47
2018-07-07T15:25:18.751Z,16.63
2018-07-07T15:27:45.587Z,19.30
2018-07-07T15:30:12.410Z,18.87
2018-07-07T15:32:39.295Z,16.73
2018-07-07T15:35:06.154Z,16.17
2018-07-07T15:37:32.988Z,18.55
2018-07-07T15:39:59.831Z,16.37
2018-07-07T15:42:26.666Z,16.53
2018-07-07T15:44:53.498Z,16.63
2018-07-07T15:47:20.816Z,16.30
2018-07-07T15:49:47.627Z,19.97
2018-07-07T15:52:14.652Z,19.00
2018-07-07T15:54:41.571Z,15.67
2018-07-07T15:57:08.591Z,18.80
2018-07-07T15:59:35.385Z,15.27
2018-07-07T16:02:02.234Z,17.10
2018-07-07T16:04:29.054Z,15.83
2018-07-07T16:06:55.883Z,17.07
2018-07-07T16:09:22.705Z,20.23
2018-07-07T16:11:49.600Z,20.15
2018-07-07T16:14:16.428Z,24.50
2018-07-07T16:16:43.261Z,18.40
2018-07-07T16:19:10.075Z,17.40
2018-07-07T16:21:36.974Z,25.70
2018-07-07T16:24:03.799Z,22.33
2018-07-07T16:26:30.630Z,19.87
2018-07-07T16:28:57.499Z,16.97
2018-07-07T16:31:24.350Z,22.70
2018-07-07T16:33:51.171Z,17.00
2018-07-07T16:36:18.004Z,16.12
2018-07-07T16:38:44.844Z,18.48
2018-07-07T16:41:11.720Z,22.40
2018-07-07T16:43:38.548Z,25.83
2018-07-07T16:46:05.432Z,20.47
2018-07-07T16:48:32.237Z,21.00
2018-07-07T16:50:59.092Z,30.00
2018-07-07T16:53:25.919Z,42.90
2018-07-07T16:55:52.746Z,32.47
2018-07-07T16:58:19.566Z,26.82
2018-07-07T17:00:46.400Z,60.63
2018-07-07T17:03:13.298Z,35.97
2018-07-07T17:05:40.109Z,35.37
2018-07-07T17:08:06.963Z,33.23
2018-07-07T17:10:33.787Z,38.43
2018-07-07T17:13:00.622Z,30.40
2018-07-07T17:15:27.453Z,32.97
2018-07-07T17:17:54.288Z,27.42
2018-07-07T17:20:21.132Z,22.42
2018-07-07T17:22:48.072Z,28.73
2018-07-07T17:25:14.924Z,27.07
2018-07-07T17:27:41.770Z,22.73
2018-07-07T17:30:08.620Z,21.47
2018-07-07T17:32:35.638Z,20.27
2018-07-07T17:35:02.475Z,24.00
2018-07-07T17:37:29.301Z,23.67
2018-07-07T17:39:56.122Z,24.50
2018-07-07T17:42:23.058Z,21.13
2018-07-07T17:44:49.814Z,17.60
2018-07-07T17:47:16.657Z,20.33
2018-07-07T17:49:43.471Z,21.48
2018-07-07T17:52:10.368Z,17.27
2018-07-07T17:54:37.216Z,17.48
2018-07-07T17:57:04.042Z,18.13
2018-07-07T17:59:30.863Z,17.37
2018-07-07T18:01:57.750Z,19.13
2018-07-07T18:04:24.574Z,17.60
2018-07-07T18:06:51.402Z,23.07
2018-07-07T18:09:18.267Z,25.37
2018-07-07T18:11:45.137Z,25.95
2018-07-07T18:14:11.938Z,20.05
2018-07-07T18:16:38.782Z,21.93
2018-07-07T18:19:05.683Z,18.43
2018-07-07T18:21:32.470Z,18.43
2018-07-07T18:23:59.300Z,16.70
2018-07-07T18:26:26.137Z,17.20
2018-07-07T18:28:52.958Z,17.30
2018-07-07T18:31:19.861Z,25.43
2018-07-07T18:33:46.680Z,17.32
2018-07-07T18:36:13.518Z,17.63
2018-07-07T18:38:40.352Z,19.53
2018-07-07T18:41:07.227Z,17.73
2018-07-07T18:43:34.049Z,17.67
2018-07-07T18:46:00.874Z,19.60
2018-07-07T18:48:27.696Z,18.67
2018-07-07T18:50:54.598Z,17.10
2018-07-07T18:53:21.436Z,17.07
2018-07-07T18:55:48.267Z,17.80
2018-07-07T18:58:15.093Z,18.20
2018-07-07T19:00:41.940Z,18.27
2018-07-07T19:03:08.772Z,17.17
2018-07-07T19:05:35.599Z,17.87
2018-07-07T19:08:02.429Z,17.43
2018-07-07T19:10:29.262Z,16.60
2018-07-07T19:12:56.073Z,15.63
2018-07-07T19:15:22.967Z,16.90
2018-07-07T19:17:49.744Z,16.93
2018-07-07T19:20:16.575Z,15.18
2018-07-07T19:22:43.554Z,16.23
2018-07-07T19:25:10.457Z,15.67
2018-07-07T19:27:37.305Z,20.33
2018-07-07T19:30:04.141Z,18.73
2018-07-07T19:32:44.150Z,18.13
2018-07-07T19:35:17.420Z,17.43
2018-07-07T19:37:53.632Z,15.43
2018-07-07T19:40:25.884Z,19.63
2018-07-07T19:42:59.730Z,22.47
2018-07-07T19:45:39.311Z,20.27
2018-07-07T19:48:08.409Z,21.27
2018-07-07T19:50:35.226Z,16.37
2018-07-07T19:53:02.068Z,17.05
2018-07-07T19:55:29.849Z,18.80
2018-07-07T19:57:56.685Z,15.20
2018-07-07T20:00:23.551Z,18.27
2018-07-07T20:02:50.602Z,22.43
2018-07-07T20:05:17.460Z,18.23
2018-07-07T20:07:44.345Z,15.07
2018-07-07T20:10:11.111Z,19.13
2018-07-07T20:12:37.995Z,20.17
2018-07-07T20:15:04.980Z,15.63
2018-07-07T20:17:32.867Z,21.07
2018-07-07T20:19:59.682Z,15.60
2018-07-07T20:22:26.564Z,14.90
2018-07-07T20:24:53.470Z,18.07
2018-07-07T20:27:20.351Z,14.00
2018-07-07T20:29:47.745Z,15.47
2018-07-07T20:32:14.798Z,16.10
2018-07-07T20:34:41.634Z,15.23
2018-07-07T20:37:08.638Z,14.47
2018-07-07T20:39:35.535Z,22.37
2018-07-07T20:42:02.535Z,15.05
2018-07-07T20:44:29.377Z,20.10
2018-07-07T20:46:56.199Z,14.43
2018-07-07T20:49:23.018Z,17.05
2018-07-07T20:51:49.938Z,14.47
2018-07-07T20:54:26.101Z,15.70
2018-07-07T20:57:01.492Z,15.50
2018-07-07T20:59:41.137Z,14.93
2018-07-07T21:02:13.907Z,30.27
2018-07-07T21:04:51.809Z,16.23
2018-07-07T21:07:18.726Z,15.13
2018-07-07T21:09:46.028Z,14.63
2018-07-07T21:12:13.003Z,14.87
2018-07-07T21:14:39.835Z,14.63
2018-07-07T21:17:06.698Z,16.02
2018-07-07T21:19:33.519Z,17.57
2018-07-07T21:22:00.616Z,17.23
2018-07-07T21:24:27.518Z,17.07
2018-07-07T21:26:54.398Z,26.33
2018-07-07T21:29:21.328Z,17.80
2018-07-07T21:31:48.504Z,15.70
2018-07-07T21:34:15.334Z,17.77
2018-07-07T21:36:42.248Z,15.32
2018-07-07T21:39:09.081Z,15.30
2018-07-07T21:41:35.914Z,15.83
2018-07-07T21:44:02.725Z,16.70
2018-07-07T21:46:29.549Z,16.47
2018-07-07T21:48:56.399Z,14.47
2018-07-07T21:51:23.306Z,15.13
2018-07-07T21:53:50.277Z,15.73
2018-07-07T21:56:16.950Z,16.02
2018-07-07T21:58:43.778Z,16.67
2018-07-07T22:01:11.186Z,15.37
2018-07-07T22:03:38.799Z,14.97
2018-07-07T22:06:05.639Z,15.95
2018-07-07T22:08:32.496Z,15.03
2018-07-07T22:10:59.465Z,15.17
2018-07-07T22:13:26.305Z,20.67
2018-07-07T22:15:53.187Z,16.40
2018-07-07T22:18:19.978Z,23.53
2018-07-07T22:20:46.822Z,18.13
2018-07-07T22:23:13.738Z,16.87
2018-07-07T22:25:40.589Z,14.10
2018-07-07T22:28:07.422Z,15.05
2018-07-07T22:30:34.259Z,15.98
2018-07-07T22:33:01.087Z,19.27
2018-07-07T22:35:27.909Z,16.63
2018-07-07T22:37:54.735Z,17.77
2018-07-07T22:40:21.568Z,18.10
2018-07-07T22:42:48.415Z,16.10
2018-07-07T22:45:15.251Z,17.60
2018-07-07T22:47:42.143Z,15.95
2018-07-07T22:50:08.969Z,16.45
2018-07-07T22:52:36.158Z,14.80
2018-07-07T22:55:03.212Z,15.00
2018-07-07T22:57:30.058Z,15.67
2018-07-07T22:59:56.893Z,13.85
2018-07-07T23:02:23.778Z,13.38
2018-07-07T23:04:50.629Z,14.03
2018-07-07T23:07:17.484Z,14.07
2018-07-07T23:09:44.906Z,12.70
2018-07-07T23:12:12.172Z,13.00
2018-07-07T23:14:38.997Z,13.80
2018-07-07T23:17:06.576Z,13.50
2018-07-07T23:19:33.417Z,12.90
2018-07-07T23:22:00.366Z,14.33
2018-07-07T23:24:27.209Z,13.07
2018-07-07T23:26:54.057Z,12.50
2018-07-07T23:29:21.171Z,12.77
2018-07-07T23:31:48.149Z,13.80
2018-07-07T23:34:14.978Z,14.27
2018-07-07T23:36:41.794Z,13.77
2018-07-07T23:39:08.622Z,13.50
2018-07-07T23:41:35.515Z,14.13
2018-07-07T23:44:02.342Z,13.80
2018-07-07T23:46:29.170Z,13.03
2018-07-07T23:48:55.994Z,13.30
2018-07-07T23:51:22.886Z,13.63
2018-07-07T23:53:49.728Z,12.80
2018-07-07T23:56:16.556Z,13.77
2018-07-07T23:58:43.381Z,13.23
